Latest Weather Observations for Keith West

IDS60801

Issued at 6:31 pm CST Tuesday 30 August 2016 (issued every 30 minutes, with the page automatically refreshed every 10 minutes)

About weather observations | Map of weather stations | Latest weather observations for SA | Other Formats
Station Details ID: 025557 Name: MUNKORA Lat: -36.11 Lon: 140.33 Height: 27.0 m
Data from the previous 72 hours. | See also: Recent months at Keith West
Date/Time
CST
Temp
°C
App
Temp
°C
Dew
Point
°C
Rel
Hum
%
Delta-T
°C
Wind Press
QNH
hPa
Press
MSL
hPa
Rain since
9am
mm
Dir  Spd
km/h
Gust
km/h
Spd
kts
Gust
kts
30/06:30pm 13.0 12.1 10.7 86 1.2 NNE 6 7 3 4 1011.1 1011.1 0.2
30/06:00pm 13.7 12.3 11.0 84 1.4 N 9 11 5 6 1010.9 1010.9 0.2
30/05:30pm 14.7 13.5 11.7 82 1.6 N 9 9 5 5 1010.7 1010.7 0.2
30/05:00pm 16.5 16.1 13.0 80 2.0 N 7 9 4 5 1010.5 1010.5 0.2
30/04:30pm 17.6 16.5 13.1 75 2.5 N 11 15 6 8 1010.4 1010.4 0.2
30/04:00pm 17.7 16.8 13.6 77 2.3 N 11 17 6 9 1010.4 1010.4 0.2
30/03:30pm 17.6 15.3 13.1 75 2.5 N 17 22 9 12 1010.3 1010.3 0.2
30/03:00pm 17.4 14.8 13.1 76 2.4 NNW 19 26 10 14 1010.6 1010.6 0.2
30/02:30pm 16.6 14.7 13.1 80 2.0 N 15 24 8 13 1011.0 1011.0 0.2
30/02:00pm 16.2 13.1 12.2 77 2.2 N 20 28 11 15 1011.1 1011.1 0.2
30/01:30pm 16.4 13.9 12.2 76 2.3 N 17 22 9 12 1011.0 1011.0 0.2
30/01:00pm 15.6 13.0 12.0 79 2.0 N 17 24 9 13 1011.3 1011.3 0.2
30/12:30pm 14.8 11.5 11.6 81 1.7 N 20 28 11 15 1011.6 1011.6 0.2
30/12:00pm 14.9 11.7 11.1 78 2.0 N 19 24 10 13 1011.8 1011.8 0.2
30/11:30am 14.9 12.6 11.9 82 1.6 N 15 20 8 11 1012.0 1012.0 0.2
30/11:00am 14.1 10.9 11.3 83 1.5 NNE 19 26 10 14 1012.6 1012.6 0.2
30/10:30am 13.7 10.4 11.6 87 1.1 NNE 20 32 11 17 1012.9 1012.9 0.0
30/10:00am 13.1 9.1 10.5 84 1.4 NNE 22 32 12 17 1013.1 1013.1 0.0
30/09:30am 13.1 9.5 10.6 85 1.3 NNE 20 32 11 17 1013.2 1013.2 0.0
30/09:00am 12.4 9.3 10.3 87 1.1 NNE 17 24 9 13 1013.6 1013.6 5.4
30/08:30am 12.4 8.7 10.1 86 1.2 NE 20 28 11 15 1013.7 1013.7 5.0
30/08:00am 12.0 8.8 9.9 87 1.1 ENE 17 22 9 12 1013.6 1013.6 5.0
30/07:30am 11.9 8.3 9.8 87 1.1 NE 19 24 10 13 1014.0 1014.0 4.8
30/07:00am 11.9 8.2 9.6 86 1.2 ENE 19 26 10 14 1013.6 1013.6 4.8
30/06:30am 11.8 8.5 9.5 86 1.2 NE 17 22 9 12 1013.8 1013.8 4.6
30/06:00am 11.7 9.2 9.8 88 1.0 ENE 13 19 7 10 1013.6 1013.6 4.6
30/05:30am 11.8 8.6 9.9 88 1.0 NE 17 26 9 14 1014.2 1014.2 4.6
30/05:00am 11.8 8.9 9.7 87 1.1 NE 15 22 8 12 1013.9 1013.9 4.2
30/04:30am 11.8 8.2 9.9 88 1.0 NE 19 26 10 14 1014.2 1014.2 4.2
30/04:00am 11.7 8.1 9.9 89 0.9 NE 19 24 10 13 1014.0 1014.0 4.2
30/03:30am 11.8 8.2 10.0 89 0.9 NE 19 26 10 14 1014.6 1014.6 3.6
30/03:00am 11.9 8.2 10.1 89 0.9 NE 20 28 11 15 1014.4 1014.4 3.0
30/02:30am 11.8 8.1 10.0 89 0.9 NE 20 30 11 16 1014.9 1014.9 2.8
30/02:00am 11.7 7.9 9.8 88 1.0 NE 20 26 11 14 1015.0 1015.0 2.2
30/01:30am 12.0 7.8 9.6 85 1.2 NNE 22 30 12 16 1015.5 1015.5 1.4
30/01:00am 12.5 8.1 9.0 79 1.8 NNE 22 30 12 16 1015.8 1015.8 1.0
30/12:30am 12.9 8.9 8.4 74 2.2 NNE 19 32 10 17 1015.9 1015.9 0.8
30/12:00am 13.2 9.2 8.3 72 2.4 NNE 19 26 10 14 1016.0 1016.0 0.6
 
Date/Time
CST
Temp
°C
App
Temp
°C
Dew
Point
°C
Rel
Hum
%
Delta-T
°C
Wind Press
QNH
hPa
Press
MSL
hPa
Rain since
9am
mm
Dir  Spd
km/h
Gust
km/h
Spd
kts
Gust
kts
29/11:30pm 13.7 10.0 8.1 69 2.8 NNE 17 22 9 12 1015.9 1015.9 0.2
29/11:00pm 13.6 10.0 8.4 71 2.6 NNE 17 24 9 13 1015.6 1015.6 0.2
29/10:30pm 13.2 9.3 8.5 73 2.3 NE 19 26 10 14 1015.4 1015.4 0.2
29/10:00pm 13.6 9.4 8.2 70 2.7 NNE 20 30 11 16 1016.1 1016.1 0.2
29/09:30pm 15.9 10.5 6.3 53 4.7 N 24 35 13 19 1016.5 1016.5 0.0
29/09:00pm 17.1 10.3 5.1 45 5.7 N 30 54 16 29 1016.5 1016.5 0.0
29/08:58pm 16.9 10.4 4.9 45 5.7 NNE 28 48 15 26 1016.4 1016.4 0.0
29/08:30pm 16.8 11.8 3.8 42 6.0 NNE 19 28 10 15 1016.2 1016.2 0.0
29/08:00pm 16.3 12.5 4.0 44 5.7 NNE 13 17 7 9 1016.0 1016.0 0.0
29/07:30pm 16.3 12.1 4.0 44 5.7 NNE 15 19 8 10 1016.0 1016.0 0.0
29/07:00pm 16.9 11.9 3.6 41 6.2 NE 19 32 10 17 1015.6 1015.6 0.0
29/06:30pm 16.6 11.7 4.0 43 5.9 NE 19 24 10 13 1015.1 1015.1 0.0
29/06:00pm 16.4 12.3 4.1 44 5.7 NE 15 20 8 11 1014.8 1014.8 0.0
29/05:30pm 17.2 12.2 3.8 41 6.3 NE 19 28 10 15 1014.0 1014.0 0.0
29/05:00pm 18.3 13.1 3.8 38 6.8 NE 20 30 11 16 1013.9 1013.9 0.0
29/04:30pm 18.6 13.8 4.4 39 6.8 NE 19 28 10 15 1013.9 1013.9 0.0
29/04:00pm 18.6 13.8 4.8 40 6.6 NNE 19 30 10 16 1014.4 1014.4 0.0
29/03:30pm 19.8 14.0 4.3 36 7.4 NNE 24 39 13 21 1014.2 1014.2 0.0
29/03:00pm 20.3 15.6 5.9 39 7.2 NE 20 28 11 15 1014.6 1014.6 0.0
29/02:30pm 18.7 13.5 5.5 42 6.4 NE 22 35 12 19 1015.0 1015.0 0.0
29/02:00pm 17.6 13.5 6.2 47 5.6 NE 17 26 9 14 1015.3 1015.3 0.0
29/01:30pm 17.2 12.6 5.8 47 5.5 NNE 19 26 10 14 1016.0 1016.0 0.0
29/01:00pm 17.9 13.1 5.8 45 5.9 N 20 28 11 15 1016.3 1016.3 0.0
29/12:30pm 18.1 13.2 5.3 43 6.2 NNE 20 28 11 15 1016.8 1016.8 0.0
29/12:00pm 18.1 12.9 5.3 43 6.2 NNE 22 32 12 17 1017.0 1017.0 0.0
29/11:30am 16.6 12.2 6.4 51 5.0 NNE 19 28 10 15 1017.5 1017.5 0.0
29/11:00am 15.8 11.7 6.3 53 4.6 NNE 17 26 9 14 1017.9 1018.0 0.0
29/10:30am 15.2 10.8 4.9 50 4.8 NNE 17 24 9 13 1018.2 1018.3 0.0
29/10:00am 15.1 10.9 5.6 53 4.5 NNE 17 22 9 12 1018.1 1018.2 0.0
29/09:30am 14.0 9.3 5.1 55 4.2 NE 19 28 10 15 1018.3 1018.4 0.0
29/09:00am 13.3 7.8 4.2 54 4.1 NE 22 30 12 16 1018.3 1018.4 0.2
29/08:30am 12.7 6.7 3.4 53 4.1 NE 24 32 13 17 1018.4 1018.5 0.2
29/08:00am 12.2 7.1 2.9 53 4.1 NE 19 24 10 13 1018.4 1018.5 0.2
29/07:30am 11.9 7.9 2.6 53 4.0 NE 13 22 7 12 1018.1 1018.2 0.2
29/07:00am 11.7 6.5 2.7 54 3.9 ENE 19 24 10 13 1017.7 1017.7 0.2
29/06:30am 11.4 6.6 2.7 55 3.8 ENE 17 20 9 11 1017.4 1017.4 0.2
29/06:00am 12.0 6.8 2.2 51 4.2 NE 19 28 10 15 1017.3 1017.3 0.2
29/05:30am 11.8 6.6 2.5 53 4.0 NE 19 26 10 14 1017.3 1017.3 0.2
29/05:00am 11.5 6.3 2.3 53 4.0 NE 19 24 10 13 1017.2 1017.2 0.2
29/04:30am 11.4 6.2 2.2 53 3.9 NE 19 26 10 14 1017.2 1017.2 0.2
29/04:00am 10.8 6.0 2.4 56 3.6 NE 17 24 9 13 1017.0 1017.0 0.2
29/03:30am 10.7 5.8 2.3 56 3.6 NE 17 20 9 11 1017.2 1017.2 0.2
29/03:00am 11.1 7.0 2.4 55 3.7 ENE 13 17 7 9 1017.3 1017.3 0.2
29/02:30am 11.6 7.5 2.4 53 4.0 ENE 13 19 7 10 1017.6 1017.6 0.2
29/02:00am 12.5 7.6 1.8 48 4.6 NE 17 24 9 13 1017.6 1017.6 0.2
29/01:30am 11.7 7.6 2.2 52 4.1 NE 13 19 7 10 1017.8 1017.8 0.2
29/01:00am 11.9 7.8 2.1 51 4.2 NNE 13 19 7 10 1017.8 1017.8 0.2
29/12:30am 12.0 7.0 1.6 49 4.4 NNE 17 22 9 12 1017.5 1017.5 0.2
29/12:00am 11.8 6.3 1.7 50 4.3 NE 20 28 11 15 1017.2 1017.2 0.2
 
Date/Time
CST
Temp
°C
App
Temp
°C
Dew
Point
°C
Rel
Hum
%
Delta-T
°C
Wind Press
QNH
hPa
Press
MSL
hPa
Rain since
9am
mm
Dir  Spd
km/h
Gust
km/h
Spd
kts
Gust
kts
28/11:30pm 11.8 6.4 1.4 49 4.4 NE 19 26 10 14 1017.3 1017.3 0.2
28/11:00pm 11.5 6.2 2.0 52 4.1 NE 19 24 10 13 1017.5 1017.5 0.2
28/10:30pm 11.4 6.5 2.2 53 3.9 NE 17 20 9 11 1017.7 1017.7 0.2
28/10:00pm 11.4 6.6 2.4 54 3.9 NE 17 20 9 11 1017.6 1017.6 0.2
28/09:30pm 10.0 5.7 3.1 62 3.0 NE 15 17 8 9 1017.9 1018.0 0.2
28/09:00pm 10.2 5.9 3.5 63 2.9 NE 15 17 8 9 1017.9 1018.0 0.2
28/08:30pm 9.8 6.2 2.9 62 3.0 NNE 11 13 6 7 1018.0 1018.1 0.2
28/08:00pm 11.2 7.3 3.3 58 3.5 NNE 13 17 7 9 1017.6 1017.6 0.2
28/07:30pm 11.5 8.1 3.8 59 3.4 NE 11 13 6 7 1017.1 1017.1 0.2
28/07:00pm 12.7 9.3 3.9 55 4.0 NE 11 13 6 7 1016.7 1016.7 0.2
28/06:30pm 13.6 9.9 4.5 54 4.2 NE 13 15 7 8 1016.1 1016.1 0.2
28/06:00pm 14.2 11.4 5.0 54 4.3 NE 9 13 5 7 1016.0 1016.0 0.2
28/05:30pm 14.7 11.6 5.5 54 4.4 NNE 11 13 6 7 1015.7 1015.7 0.2
28/05:00pm 16.6 13.5 5.6 48 5.3 NNE 11 15 6 8 1015.4 1015.4 0.2
28/04:30pm 18.2 15.2 6.1 45 6.0 NNE 11 15 6 8 1015.2 1015.2 0.2
28/04:00pm 17.8 14.6 6.7 48 5.5 N 13 17 7 9 1015.3 1015.3 0.2
28/03:30pm 19.1 15.1 4.8 39 6.9 N 15 19 8 10 1015.4 1015.4 0.2
28/03:00pm 20.3 15.8 4.4 35 7.7 NNE 17 24 9 13 1015.6 1015.6 0.2
28/02:30pm 20.0 15.5 4.1 35 7.6 N 17 22 9 12 1015.8 1015.8 0.2
28/02:00pm 20.7 16.6 4.3 34 7.9 N 15 22 8 12 1016.2 1016.2 0.2
28/01:30pm 20.6 16.5 6.2 39 7.2 N 17 26 9 14 1016.5 1016.5 0.2
28/01:00pm 20.1 16.0 6.1 40 7.0 N 17 28 9 15 1017.0 1017.0 0.2
28/12:30pm 20.1 15.7 5.0 37 7.4 N 17 22 9 12 1017.5 1017.5 0.2
28/12:00pm 19.5 14.8 5.2 39 7.0 N 19 28 10 15 1018.0 1018.1 0.2
28/11:30am 18.8 14.7 6.3 44 6.2 N 17 24 9 13 1018.2 1018.3 0.2
28/11:00am 18.3 13.9 4.8 41 6.5 N 17 22 9 12 1018.6 1018.7 0.2
28/10:30am 17.5 13.8 6.1 47 5.6 N 15 20 8 11 1018.6 1018.7 0.2
28/10:00am 15.5 11.8 6.5 55 4.4 N 15 20 8 11 1019.0 1019.1 0.2
28/09:30am 14.6 10.3 5.4 54 4.3 N 17 22 9 12 1019.1 1019.2 0.2
28/09:00am 12.9 9.3 5.1 59 3.6 NNE 13 20 7 11 1019.2 1019.3 0.0
28/08:30am 11.2 8.0 4.9 65 2.9 NNE 11 15 6 8 1019.5 1019.6 0.0
28/08:00am 9.3 5.9 4.1 70 2.3 NNE 11 15 6 8 1019.3 1019.4 0.0
28/07:30am 7.6 4.1 3.3 74 1.8 NNE 11 15 6 8 1019.1 1019.2 0.0
28/07:00am 5.9 1.8 2.4 78 1.4 NNE 13 17 7 9 1018.8 1018.9 0.0
28/06:30am 5.4 1.6 1.9 78 1.4 NNE 11 15 6 8 1018.8 1018.9 0.0
28/06:00am 5.7 1.5 1.6 75 1.6 NNE 13 15 7 8 1018.5 1018.6 0.0
28/05:30am 5.4 1.3 2.2 80 1.3 NNE 13 15 7 8 1018.4 1018.5 0.0
28/05:00am 4.5 1.4 1.4 80 1.2 NNE 7 9 4 5 1018.3 1018.4 0.0
28/04:30am 4.8 0.6 1.8 81 1.2 N 13 17 7 9 1018.0 1018.1 0.0
28/04:00am 5.0 1.2 1.8 80 1.3 NNE 11 13 6 7 1017.9 1018.0 0.0
28/03:30am 5.7 1.6 2.4 79 1.3 NNE 13 15 7 8 1018.0 1018.1 0.0
28/03:00am 5.2 1.5 2.6 83 1.1 NNE 11 17 6 9 1018.2 1018.3 0.0
28/02:30am 5.2 1.5 2.4 82 1.1 NNE 11 15 6 8 1018.3 1018.4 0.0
28/02:00am 6.0 2.0 3.0 81 1.2 NNE 13 15 7 8 1018.6 1018.7 0.0
28/01:30am 5.4 1.7 2.6 82 1.1 NNE 11 13 6 7 1018.7 1018.8 0.0
28/01:00am 5.5 1.8 2.5 81 1.2 NNE 11 13 6 7 1018.6 1018.7 0.0
28/12:30am 6.1 2.1 2.9 80 1.3 NNE 13 15 7 8 1018.8 1018.9 0.0
28/12:00am 6.2 3.0 3.2 81 1.2 NNE 9 11 5 6 1018.9 1019.0 0.0
 
Date/Time
CST
Temp
°C
App
Temp
°C
Dew
Point
°C
Rel
Hum
%
Delta-T
°C
Wind Press
QNH
hPa
Press
MSL
hPa
Rain since
9am
mm
Dir  Spd
km/h
Gust
km/h
Spd
kts
Gust
kts
27/11:30pm 5.5 2.5 2.2 79 1.3 NNE 7 7 4 4 1018.9 1019.0 0.0
27/11:00pm 6.9 4.1 3.3 78 1.5 NNE 7 9 4 5 1018.8 1018.9 0.0
27/10:30pm 5.7 2.8 2.7 81 1.2 NNE 7 7 4 4 1019.2 1019.3 0.0
27/10:00pm 6.3 3.4 2.8 78 1.4 NNE 7 7 4 4 1019.2 1019.3 0.0
27/09:30pm 6.3 3.5 2.9 79 1.4 NNE 7 9 4 5 1019.2 1019.3 0.0
27/09:00pm 7.1 4.0 3.5 78 1.5 N 9 9 5 5 1019.5 1019.6 0.0
27/08:30pm 6.9 3.8 3.7 80 1.4 N 9 9 5 5 1019.5 1019.6 0.0
27/08:00pm 7.8 4.9 4.7 81 1.4 NNE 9 9 5 5 1019.4 1019.5 0.0
27/07:30pm 7.2 4.7 3.8 79 1.5 NNE 6 7 3 4 1019.2 1019.3 0.0
27/07:00pm 8.4 5.5 4.4 76 1.8 N 9 9 5 5 1019.1 1019.2 0.0

Other Formats:

Comma delimited format used in spreadsheet applications
http://www.bom.gov.au/fwo/IDS60801/IDS60801.95815.axf

JavaScript Object Notation format (JSON) in row-major order
http://www.bom.gov.au/fwo/IDS60801/IDS60801.95815.json